createdAt,value
2019-05-13T00:01:47.647Z,6.75
2019-05-13T00:04:17.508Z,6.74
2019-05-13T00:06:54.012Z,6.77
2019-05-13T00:09:21.282Z,6.75
2019-05-13T00:11:51.043Z,6.75
2019-05-13T00:14:20.760Z,6.79
2019-05-13T00:16:50.539Z,6.81
2019-05-13T00:19:20.325Z,6.82
2019-05-13T00:21:50.031Z,6.86
2019-05-13T00:24:19.804Z,6.77
2019-05-13T00:26:49.586Z,6.77
2019-05-13T00:29:19.333Z,6.74
2019-05-13T00:31:49.054Z,6.77
2019-05-13T00:34:18.830Z,6.72
2019-05-13T00:36:48.511Z,6.64
2019-05-13T00:39:18.248Z,6.59
2019-05-13T00:41:48.085Z,6.60
2019-05-13T00:44:17.853Z,6.55
2019-05-13T00:46:47.580Z,6.52
2019-05-13T00:49:17.359Z,6.47
2019-05-13T00:51:47.227Z,6.44
2019-05-13T00:54:16.969Z,6.33
2019-05-13T00:56:46.673Z,6.24
2019-05-13T00:59:16.337Z,6.27
2019-05-13T01:01:46.118Z,6.23
2019-05-13T01:04:15.934Z,6.18
2019-05-13T01:06:45.677Z,6.13
2019-05-13T01:09:16.071Z,6.09
2019-05-13T01:11:45.889Z,5.96
2019-05-13T01:14:15.622Z,5.87
2019-05-13T01:16:45.372Z,5.84
2019-05-13T01:19:15.138Z,5.76
2019-05-13T01:21:44.883Z,5.73
2019-05-13T01:24:14.693Z,5.67
2019-05-13T01:26:44.500Z,5.61
2019-05-13T01:29:14.725Z,5.56
2019-05-13T01:31:44.603Z,5.60
2019-05-13T01:34:14.455Z,5.54
2019-05-13T01:36:44.774Z,5.53
2019-05-13T01:39:14.711Z,5.45
2019-05-13T01:41:44.493Z,5.35
2019-05-13T01:44:14.241Z,5.33
2019-05-13T01:46:44.039Z,5.15
2019-05-13T01:49:13.897Z,5.07
2019-05-13T01:51:44.165Z,5.06
2019-05-13T01:54:14.332Z,4.93
2019-05-13T01:56:44.313Z,4.88
2019-05-13T01:59:15.196Z,4.85
2019-05-13T02:01:45.139Z,4.86
2019-05-13T02:04:14.900Z,4.84
2019-05-13T02:06:44.655Z,4.78
2019-05-13T02:09:14.502Z,4.77
2019-05-13T02:11:46.582Z,4.77
2019-05-13T02:14:15.755Z,4.81
2019-05-13T02:16:45.504Z,4.82
2019-05-13T02:19:15.324Z,4.91
2019-05-13T02:21:45.082Z,4.86
2019-05-13T02:24:14.840Z,4.88
2019-05-13T02:26:44.665Z,4.91
2019-05-13T02:29:14.510Z,4.96
2019-05-13T02:31:51.067Z,4.96
2019-05-13T02:34:15.811Z,5.00
2019-05-13T02:36:45.645Z,5.04
2019-05-13T02:39:15.406Z,5.07
2019-05-13T02:41:45.252Z,5.14
2019-05-13T02:44:14.989Z,5.17
2019-05-13T02:46:44.785Z,5.15
2019-05-13T02:49:14.602Z,5.16
2019-05-13T02:51:44.333Z,5.20
2019-05-13T02:54:14.088Z,5.19
2019-05-13T02:56:43.907Z,5.24
2019-05-13T02:59:13.637Z,5.26
2019-05-13T03:01:43.496Z,5.33
2019-05-13T03:04:14.213Z,5.34
2019-05-13T03:06:43.962Z,5.36
2019-05-13T03:09:13.714Z,5.40
2019-05-13T03:11:43.691Z,5.41
2019-05-13T03:14:13.576Z,5.46
2019-05-13T03:16:47.907Z,5.46
2019-05-13T03:19:17.706Z,5.52
2019-05-13T03:21:47.483Z,5.07
2019-05-13T03:24:17.235Z,5.53
2019-05-13T03:26:47.009Z,5.58
2019-05-13T03:29:16.792Z,5.51
2019-05-13T03:31:47.488Z,5.51
2019-05-13T03:34:17.355Z,5.51
2019-05-13T03:36:47.157Z,5.51
2019-05-13T03:39:17.187Z,5.49
2019-05-13T03:41:48.484Z,5.50
2019-05-13T03:44:23.253Z,5.49
2019-05-13T03:46:53.161Z,5.51
2019-05-13T03:49:25.341Z,5.48
2019-05-13T03:51:55.498Z,5.57
2019-05-13T03:54:25.652Z,5.56
2019-05-13T03:56:56.734Z,5.57
2019-05-13T03:59:26.515Z,5.60
2019-05-13T04:01:56.248Z,5.64
2019-05-13T04:04:26.058Z,5.63
2019-05-13T04:06:55.730Z,5.68
2019-05-13T04:09:31.486Z,5.68
2019-05-13T04:11:56.976Z,5.67
2019-05-13T04:14:26.693Z,5.64
2019-05-13T04:16:56.432Z,5.69
2019-05-13T04:19:26.251Z,5.76
2019-05-13T04:21:55.996Z,5.75
2019-05-13T04:24:25.775Z,5.81
2019-05-13T04:26:55.457Z,5.75
2019-05-13T04:29:25.225Z,5.78
2019-05-13T04:31:55.005Z,5.83
2019-05-13T04:34:24.708Z,5.88
2019-05-13T04:36:54.466Z,5.79
2019-05-13T04:39:40.516Z,5.85
2019-05-13T04:41:55.745Z,5.82
2019-05-13T04:44:26.201Z,5.83
2019-05-13T04:46:56.075Z,5.85
2019-05-13T04:49:25.887Z,5.81
2019-05-13T04:51:55.636Z,5.85
2019-05-13T04:54:25.367Z,5.85
2019-05-13T04:56:55.346Z,5.93
2019-05-13T04:59:25.170Z,5.97
2019-05-13T05:02:22.614Z,6.00
2019-05-13T05:05:07.487Z,5.95
2019-05-13T05:07:43.100Z,6.05
2019-05-13T05:10:38.666Z,6.05
2019-05-13T05:13:37.617Z,6.10
2019-05-13T05:16:25.498Z,6.11
2019-05-13T05:19:14.714Z,6.07
2019-05-13T05:22:08.898Z,5.97
2019-05-13T05:24:53.880Z,6.03
2019-05-13T05:27:51.461Z,5.95
2019-05-13T05:30:36.346Z,6.00
2019-05-13T05:33:12.068Z,5.98
2019-05-13T05:36:13.746Z,6.03
2019-05-13T05:39:07.551Z,6.09
2019-05-13T05:41:37.440Z,6.08
2019-05-13T05:44:08.560Z,6.14
2019-05-13T05:46:42.495Z,6.12
2019-05-13T05:49:12.707Z,6.11
2019-05-13T05:51:43.989Z,6.19
2019-05-13T05:54:14.930Z,6.20
2019-05-13T05:56:45.820Z,6.16
2019-05-13T05:59:15.579Z,6.13
2019-05-13T06:01:45.935Z,6.09
2019-05-13T06:04:15.741Z,6.14
2019-05-13T06:06:47.186Z,6.23
2019-05-13T06:09:16.965Z,6.25
2019-05-13T06:11:46.727Z,6.27
2019-05-13T06:14:16.521Z,6.29
2019-05-13T06:16:46.309Z,6.53
2019-05-13T06:19:17.979Z,6.60
2019-05-13T06:21:51.184Z,6.50
2019-05-13T06:24:24.555Z,6.38
2019-05-13T06:26:52.176Z,6.55
2019-05-13T06:29:22.332Z,6.52
2019-05-13T06:31:52.403Z,6.52
2019-05-13T06:34:23.022Z,6.60
2019-05-13T06:36:52.749Z,6.62
2019-05-13T06:39:22.507Z,6.68
2019-05-13T06:41:52.736Z,6.05
2019-05-13T06:44:22.501Z,6.48
2019-05-13T06:46:54.063Z,6.62
2019-05-13T06:49:24.738Z,6.74
2019-05-13T06:51:56.164Z,6.69
2019-05-13T06:54:25.730Z,6.53
2019-05-13T06:56:55.554Z,6.51
2019-05-13T06:59:26.320Z,6.46
2019-05-13T07:01:56.922Z,6.53
2019-05-13T07:04:27.750Z,6.60
2019-05-13T07:07:10.056Z,6.62
2019-05-13T07:09:31.997Z,6.76
2019-05-13T07:12:03.246Z,6.83
2019-05-13T07:14:32.715Z,6.82
2019-05-13T07:17:04.329Z,6.88
2019-05-13T07:19:34.103Z,6.91
2019-05-13T07:22:04.020Z,6.84
2019-05-13T07:24:34.231Z,6.66
2019-05-13T07:27:04.043Z,6.65
2019-05-13T07:29:33.946Z,6.65
2019-05-13T07:32:03.707Z,6.64
2019-05-13T07:34:34.183Z,6.63
2019-05-13T07:37:04.054Z,6.68
2019-05-13T07:39:34.687Z,6.71
2019-05-13T07:42:05.852Z,6.59
2019-05-13T07:44:35.940Z,6.67
2019-05-13T07:47:05.715Z,6.63
2019-05-13T07:49:36.348Z,6.66
2019-05-13T07:52:06.133Z,6.61
2019-05-13T07:54:38.185Z,6.68
2019-05-13T07:57:07.982Z,6.77
2019-05-13T07:59:38.421Z,6.85
2019-05-13T08:02:09.043Z,6.73
2019-05-13T08:04:41.908Z,6.66
2019-05-13T08:07:12.039Z,6.69
2019-05-13T08:09:42.161Z,6.67
2019-05-13T08:12:14.571Z,6.60
2019-05-13T08:14:43.812Z,6.56
2019-05-13T08:17:14.465Z,6.49
2019-05-13T08:19:44.317Z,6.58
2019-05-13T08:22:14.263Z,6.48
2019-05-13T08:24:45.158Z,6.59
2019-05-13T08:27:15.069Z,6.92
2019-05-13T08:29:44.805Z,6.92
2019-05-13T08:32:14.791Z,6.74
2019-05-13T08:34:44.829Z,6.74
2019-05-13T08:37:14.853Z,6.68
2019-05-13T08:39:45.450Z,6.78
2019-05-13T08:42:19.811Z,6.80
2019-05-13T08:44:48.596Z,6.62
2019-05-13T08:47:18.365Z,6.56
2019-05-13T08:49:48.121Z,6.61
2019-05-13T08:52:17.847Z,6.48
2019-05-13T08:54:47.567Z,6.57
2019-05-13T08:57:17.330Z,6.72
2019-05-13T08:59:47.089Z,6.63
2019-05-13T09:02:16.865Z,6.68
2019-05-13T09:04:51.295Z,6.61
2019-05-13T09:07:24.369Z,6.66
2019-05-13T09:09:53.487Z,6.48
2019-05-13T09:12:32.028Z,6.44
2019-05-13T09:14:56.575Z,6.39
2019-05-13T09:17:27.441Z,6.38
2019-05-13T09:19:57.268Z,6.22
2019-05-13T09:22:26.978Z,6.10
2019-05-13T09:24:56.723Z,6.09
2019-05-13T09:27:26.637Z,6.07
2019-05-13T09:29:56.369Z,5.97
2019-05-13T09:32:26.040Z,5.99
2019-05-13T09:34:56.245Z,6.00
2019-05-13T09:37:25.965Z,5.92
2019-05-13T09:39:55.773Z,5.96
2019-05-13T09:42:25.591Z,5.98
2019-05-13T09:44:56.265Z,6.10
2019-05-13T09:47:28.339Z,6.10
2019-05-13T09:49:57.600Z,6.03
2019-05-13T09:52:27.348Z,6.10
2019-05-13T09:54:57.116Z,6.10
2019-05-13T09:57:26.968Z,6.08
2019-05-13T09:59:56.772Z,6.21
2019-05-13T10:02:26.495Z,6.39
2019-05-13T10:04:56.293Z,6.47
2019-05-13T10:07:26.425Z,6.68
2019-05-13T10:09:56.202Z,6.75
2019-05-13T10:12:26.047Z,6.66
2019-05-13T10:14:55.795Z,6.56
2019-05-13T10:17:25.551Z,6.37
2019-05-13T10:19:55.400Z,6.40
2019-05-13T10:22:25.137Z,6.40
2019-05-13T10:24:55.972Z,6.40
2019-05-13T10:27:26.860Z,6.46
2019-05-13T10:29:56.765Z,6.49
2019-05-13T10:32:27.416Z,6.60
2019-05-13T10:34:58.809Z,6.72
2019-05-13T10:37:29.175Z,6.70
2019-05-13T10:40:02.295Z,6.74
2019-05-13T10:42:34.655Z,6.73
2019-05-13T10:45:05.595Z,6.79
2019-05-13T10:47:36.202Z,6.68
2019-05-13T10:50:07.606Z,6.85
2019-05-13T10:52:37.191Z,6.99
2019-05-13T10:55:08.739Z,6.91
2019-05-13T10:57:42.443Z,6.88
2019-05-13T11:00:13.902Z,6.84
2019-05-13T11:02:46.065Z,7.10
2019-05-13T11:05:15.672Z,7.32
2019-05-13T11:07:45.429Z,6.42
2019-05-13T11:10:21.885Z,7.59
2019-05-13T11:12:53.086Z,7.66
2019-05-13T11:15:23.680Z,7.69
2019-05-13T11:17:54.625Z,7.99
2019-05-13T11:20:24.386Z,7.95
2019-05-13T11:22:55.928Z,7.74
2019-05-13T11:25:25.726Z,7.91
2019-05-13T11:27:58.403Z,7.95
2019-05-13T11:30:28.527Z,7.85
2019-05-13T11:32:58.724Z,7.97
2019-05-13T11:35:28.879Z,8.10
2019-05-13T11:38:00.968Z,8.06
2019-05-13T11:40:32.012Z,8.03
2019-05-13T11:43:01.943Z,8.09
2019-05-13T11:45:31.805Z,7.99
2019-05-13T11:50:34.035Z,8.07
2019-05-13T11:53:30.116Z,8.11
2019-05-13T11:55:39.108Z,8.26
2019-05-13T11:58:13.842Z,8.15
2019-05-13T12:00:48.569Z,8.06
2019-05-13T12:03:22.976Z,7.99
2019-05-13T12:05:53.875Z,7.91
2019-05-13T12:08:23.432Z,7.85
2019-05-13T12:10:54.123Z,7.86
2019-05-13T12:13:24.049Z,7.75
2019-05-13T12:15:54.817Z,7.64
2019-05-13T12:18:25.692Z,7.64
2019-05-13T12:20:56.129Z,7.62
2019-05-13T12:23:27.749Z,7.65
2019-05-13T12:26:00.083Z,7.60
2019-05-13T12:28:33.636Z,7.41
2019-05-13T12:31:03.650Z,7.46
2019-05-13T12:33:33.471Z,7.46
2019-05-13T12:36:03.258Z,7.67
2019-05-13T12:38:33.718Z,7.60
2019-05-13T12:41:05.037Z,7.54
2019-05-13T12:43:35.060Z,7.52
2019-05-13T12:46:04.903Z,7.37
2019-05-13T12:48:34.678Z,7.57
2019-05-13T12:51:04.293Z,7.62
2019-05-13T12:53:34.092Z,7.73
2019-05-13T12:56:04.626Z,7.90
2019-05-13T12:58:36.042Z,7.89
2019-05-13T13:01:08.323Z,7.96
2019-05-13T13:03:40.885Z,8.01
2019-05-13T13:06:27.177Z,7.87
2019-05-13T13:08:48.710Z,8.00
2019-05-13T13:11:15.042Z,8.05
2019-05-13T13:13:58.772Z,7.94
2019-05-13T13:16:17.658Z,8.00
2019-05-13T13:18:48.482Z,7.95
2019-05-13T13:21:18.183Z,7.81
2019-05-13T13:23:49.557Z,7.72
2019-05-13T13:26:21.724Z,7.66
2019-05-13T13:28:55.762Z,7.78
2019-05-13T13:31:27.327Z,7.60
2019-05-13T13:34:08.096Z,7.39
2019-05-13T13:36:32.675Z,7.40
2019-05-13T13:39:03.889Z,7.42
2019-05-13T13:41:33.844Z,7.28
2019-05-13T13:44:05.356Z,7.20
2019-05-13T13:46:42.859Z,7.21
2019-05-13T13:49:08.772Z,7.22
2019-05-13T13:51:39.378Z,7.21
2019-05-13T13:54:12.455Z,7.13
2019-05-13T13:56:43.919Z,7.10
2019-05-13T13:59:14.283Z,7.11
2019-05-13T14:01:44.857Z,7.05
2019-05-13T14:04:16.533Z,7.09
2019-05-13T14:07:05.575Z,7.98
2019-05-13T14:09:18.165Z,7.04
2019-05-13T14:11:51.548Z,7.11
2019-05-13T14:14:21.954Z,6.94
2019-05-13T14:16:52.031Z,7.01
2019-05-13T14:19:22.018Z,7.04
2019-05-13T14:21:53.334Z,6.97
2019-05-13T14:24:23.221Z,7.02
2019-05-13T14:26:52.992Z,6.98
2019-05-13T14:29:37.673Z,6.94
2019-05-13T14:31:55.811Z,6.92
2019-05-13T14:34:25.490Z,7.05
2019-05-13T14:36:55.267Z,7.07
2019-05-13T14:39:25.186Z,7.11
2019-05-13T14:41:54.964Z,7.14
2019-05-13T14:44:24.758Z,7.04
2019-05-13T14:46:54.523Z,7.08
2019-05-13T14:49:24.276Z,7.02
2019-05-13T14:51:56.456Z,7.01
2019-05-13T14:54:29.250Z,7.02
2019-05-13T14:57:02.370Z,7.03
2019-05-13T14:59:32.518Z,7.02
2019-05-13T15:02:02.584Z,7.28
2019-05-13T15:04:34.149Z,7.24
2019-05-13T15:07:06.446Z,7.09
2019-05-13T15:09:38.277Z,7.03
2019-05-13T15:12:08.847Z,6.87
2019-05-13T15:14:40.665Z,6.86
2019-05-13T15:17:12.744Z,6.91
2019-05-13T15:19:45.920Z,6.91
2019-05-13T15:22:16.202Z,6.94
2019-05-13T15:24:46.044Z,6.88
2019-05-13T15:27:22.064Z,6.93
2019-05-13T15:29:51.571Z,6.98
2019-05-13T15:32:21.900Z,6.99
2019-05-13T15:34:52.035Z,6.89
2019-05-13T15:37:21.792Z,6.86
2019-05-13T15:39:53.944Z,6.85
2019-05-13T15:42:24.255Z,6.89
2019-05-13T15:44:54.322Z,6.92
2019-05-13T15:47:26.907Z,6.90
2019-05-13T15:49:56.604Z,6.96
2019-05-13T15:52:26.652Z,6.96
2019-05-13T15:54:57.555Z,6.89
2019-05-13T15:57:29.853Z,6.96
2019-05-13T16:00:02.115Z,6.93
2019-05-13T16:02:32.021Z,6.94
2019-05-13T16:05:04.957Z,6.94
2019-05-13T16:07:36.791Z,7.04
2019-05-13T16:10:08.369Z,6.96
2019-05-13T16:12:40.211Z,6.97
2019-05-13T16:15:15.818Z,6.98
2019-05-13T16:17:47.842Z,7.11
2019-05-13T16:20:18.028Z,7.03
2019-05-13T16:22:48.229Z,7.05
2019-05-13T16:25:18.666Z,7.06
2019-05-13T16:27:49.210Z,7.00
2019-05-13T16:30:22.257Z,7.03
2019-05-13T16:32:52.979Z,7.07
2019-05-13T16:35:22.812Z,6.95
2019-05-13T16:37:54.063Z,7.18
2019-05-13T16:40:25.465Z,7.34
2019-05-13T16:42:55.339Z,7.31
2019-05-13T16:45:26.730Z,7.18
2019-05-13T16:48:00.448Z,7.14
2019-05-13T16:50:31.263Z,7.07
2019-05-13T16:53:04.053Z,7.09
2019-05-13T16:55:35.659Z,7.12
2019-05-13T16:58:06.155Z,7.03
2019-05-13T17:00:35.961Z,7.05
2019-05-13T17:03:05.767Z,7.09
2019-05-13T17:05:35.614Z,7.20
2019-05-13T17:08:06.441Z,7.18
2019-05-13T17:10:38.740Z,7.16
2019-05-13T17:13:08.639Z,7.20
2019-05-13T17:15:41.543Z,7.15
2019-05-13T17:18:12.910Z,7.17
2019-05-13T17:20:43.785Z,7.18
2019-05-13T17:23:13.564Z,7.27
2019-05-13T17:25:43.544Z,7.16
2019-05-13T17:28:15.738Z,7.20
2019-05-13T17:30:45.478Z,7.18
2019-05-13T17:33:15.434Z,7.19
2019-05-13T17:35:46.272Z,7.42
2019-05-13T17:38:16.012Z,7.49
2019-05-13T17:40:49.799Z,7.57
2019-05-13T17:43:21.358Z,7.56
2019-05-13T17:45:53.424Z,7.65
2019-05-13T17:48:29.328Z,7.47
2019-05-13T17:51:01.335Z,7.40
2019-05-13T17:53:33.282Z,7.23
2019-05-13T17:56:03.033Z,7.13
2019-05-13T17:58:33.780Z,7.13
2019-05-13T18:01:03.558Z,7.12
2019-05-13T18:03:35.124Z,7.10
2019-05-13T18:06:07.756Z,7.09
2019-05-13T18:08:38.019Z,7.02
2019-05-13T18:11:11.419Z,7.01
2019-05-13T18:13:43.890Z,7.04
2019-05-13T18:16:13.680Z,6.97
2019-05-13T18:18:47.482Z,6.99
2019-05-13T18:21:15.913Z,6.94
2019-05-13T18:23:46.117Z,6.97
2019-05-13T18:26:16.299Z,6.93
2019-05-13T18:28:46.223Z,6.85
2019-05-13T18:31:16.443Z,6.78
2019-05-13T18:33:48.383Z,6.80
2019-05-13T18:36:22.142Z,6.78
2019-05-13T18:38:51.904Z,6.80
2019-05-13T18:41:21.683Z,6.85
2019-05-13T18:43:54.905Z,6.77
2019-05-13T18:46:24.155Z,6.70
2019-05-13T18:48:59.377Z,6.72
2019-05-13T18:51:31.585Z,6.76
2019-05-13T18:54:04.071Z,6.86
2019-05-13T18:56:38.780Z,6.78
2019-05-13T18:59:08.640Z,6.55
2019-05-13T19:01:38.517Z,6.54
2019-05-13T19:04:11.462Z,6.48
2019-05-13T19:06:42.603Z,6.41
2019-05-13T19:09:13.759Z,6.41
2019-05-13T19:11:44.198Z,6.41
2019-05-13T19:14:13.950Z,6.41
2019-05-13T19:16:45.392Z,6.32
2019-05-13T19:19:20.710Z,6.30
2019-05-13T19:21:51.484Z,6.30
2019-05-13T19:24:21.238Z,6.33
2019-05-13T19:26:52.104Z,6.28
2019-05-13T19:29:26.137Z,6.16
2019-05-13T19:31:58.913Z,6.18
2019-05-13T19:34:32.366Z,6.14
2019-05-13T19:37:02.557Z,6.17
2019-05-13T19:39:33.552Z,6.11
2019-05-13T19:42:07.921Z,6.10
2019-05-13T19:44:37.817Z,6.03
2019-05-13T19:47:12.652Z,6.15
2019-05-13T19:49:46.301Z,6.08
2019-05-13T19:52:16.318Z,6.11
2019-05-13T19:54:47.541Z,6.10
2019-05-13T19:57:17.354Z,6.15
2019-05-13T19:59:47.734Z,6.20
2019-05-13T20:02:17.443Z,6.14
2019-05-13T20:04:47.396Z,6.15
2019-05-13T20:07:17.284Z,6.19
2019-05-13T20:09:52.033Z,6.10
2019-05-13T20:12:23.369Z,6.14
2019-05-13T20:14:53.234Z,6.21
2019-05-13T20:17:28.286Z,6.15
2019-05-13T20:20:02.139Z,6.18
2019-05-13T20:22:32.253Z,6.23
2019-05-13T20:25:02.601Z,6.23
2019-05-13T20:27:36.048Z,6.22
2019-05-13T20:30:07.025Z,6.11
2019-05-13T20:32:37.516Z,6.14
2019-05-13T20:35:08.691Z,6.16
2019-05-13T20:37:38.802Z,6.21
2019-05-13T20:40:11.515Z,6.33
2019-05-13T20:42:44.912Z,6.31
2019-05-13T20:45:19.262Z,6.31
2019-05-13T20:47:49.460Z,6.38
2019-05-13T20:50:21.528Z,6.42
2019-05-13T20:52:51.757Z,6.45
2019-05-13T20:55:22.180Z,6.42
2019-05-13T20:57:55.005Z,6.16
2019-05-13T21:00:27.925Z,6.38
2019-05-13T21:02:57.722Z,6.37
2019-05-13T21:05:27.503Z,6.42
2019-05-13T21:07:57.680Z,6.43
2019-05-13T21:10:27.807Z,6.42
2019-05-13T21:12:58.642Z,6.42
2019-05-13T21:15:31.566Z,6.42
2019-05-13T21:18:02.055Z,6.46
2019-05-13T21:20:32.396Z,6.55
2019-05-13T21:23:04.063Z,6.50
2019-05-13T21:25:33.845Z,6.53
2019-05-13T21:28:03.610Z,6.52
2019-05-13T21:30:33.384Z,6.48
2019-05-13T21:33:03.485Z,6.52
2019-05-13T21:35:33.463Z,6.51
2019-05-13T21:38:06.739Z,6.50
2019-05-13T21:40:36.609Z,6.51
2019-05-13T21:43:06.891Z,6.62
2019-05-13T21:45:36.632Z,6.68
2019-05-13T21:48:08.166Z,6.59
2019-05-13T21:50:37.953Z,6.69
2019-05-13T21:53:07.670Z,6.67
2019-05-13T21:55:37.398Z,6.80
2019-05-13T21:58:07.161Z,6.69
2019-05-13T22:00:41.815Z,6.76
2019-05-13T22:03:11.980Z,6.69
2019-05-13T22:05:42.161Z,6.68
2019-05-13T22:08:12.370Z,6.80
2019-05-13T22:10:42.116Z,6.84
2019-05-13T22:13:12.703Z,6.79
2019-05-13T22:15:43.174Z,6.63
2019-05-13T22:18:12.811Z,6.79
2019-05-13T22:20:49.955Z,6.71
2019-05-13T22:23:14.117Z,6.65
2019-05-13T22:25:47.418Z,6.75
2019-05-13T22:28:17.059Z,6.76
2019-05-13T22:30:46.765Z,6.69
2019-05-13T22:33:19.081Z,6.76
2019-05-13T22:35:52.122Z,6.76
2019-05-13T22:38:21.489Z,6.77
2019-05-13T22:40:52.092Z,6.77
2019-05-13T22:43:22.166Z,6.76
2019-05-13T22:45:52.753Z,6.81
2019-05-13T22:48:22.765Z,6.77
2019-05-13T22:50:52.485Z,6.93
2019-05-13T22:53:22.268Z,6.92
2019-05-13T22:55:52.248Z,6.93
2019-05-13T22:58:22.687Z,6.96
2019-05-13T23:00:52.526Z,6.79
2019-05-13T23:03:23.057Z,6.95
2019-05-13T23:05:53.655Z,6.85
2019-05-13T23:08:23.335Z,6.88
2019-05-13T23:10:53.815Z,6.87
2019-05-13T23:13:23.622Z,6.93
2019-05-13T23:15:54.923Z,6.93
2019-05-13T23:18:24.941Z,6.94
2019-05-13T23:20:54.776Z,6.87
2019-05-13T23:23:26.093Z,6.80
2019-05-13T23:25:56.994Z,6.78
2019-05-13T23:28:27.542Z,6.82
2019-05-13T23:30:58.265Z,6.56
2019-05-13T23:33:28.287Z,6.54
2019-05-13T23:36:01.509Z,6.66
2019-05-13T23:38:34.095Z,6.72
2019-05-13T23:41:03.800Z,6.75
2019-05-13T23:43:34.546Z,6.90
2019-05-13T23:46:04.341Z,6.92
2019-05-13T23:48:35.002Z,6.75
2019-05-13T23:51:05.219Z,6.79
2019-05-13T23:53:35.727Z,6.79
2019-05-13T23:56:05.608Z,6.73
2019-05-13T23:58:36.428Z,6.76
